Time;durP1;ratioP1;P1;durP2;ratioP2;P2;SDS_P1;SDS_P2;PMS_P1;PMS_P2;Temp;Humidity;BMP_temperature;BMP_pressure;BME280_temperature;BME280_humidity;BME280_pressure;Samples;Min_cycle;Max_cycle;Signal;HPM_P1;HPM_P2
2021/08/03 00:00:22;;;;;;;3.40;1.17;;;;;;;;;;5131862;27;20042;-77
2021/08/03 00:02:50;;;;;;;2.03;1.10;;;;;;;;;;5132326;27;20069;-77
2021/08/03 00:05:20;;;;;;;2.45;1.10;;;;;;;;;;5124921;27;20432;-77
2021/08/03 00:07:47;;;;;;;1.60;1.10;;;;;;;;;;5131703;27;20039;-77
2021/08/03 00:10:17;;;;;;;2.83;1.10;;;;;;;;;;5127312;27;20100;-75
2021/08/03 00:12:48;;;;;;;2.13;1.20;;;;;;;;;;5132173;27;20054;-77
2021/08/03 00:15:17;;;;;;;4.10;1.15;;;;;;;;;;5131964;27;20050;-76
2021/08/03 00:17:43;;;;;;;1.92;1.20;;;;;;;;;;5131480;27;20482;-77
2021/08/03 00:20:09;;;;;;;1.50;0.85;;;;;;;;;;5117915;27;20034;-76
2021/08/03 00:22:36;;;;;;;3.33;1.20;;;;;;;;;;5131421;27;20459;-77
2021/08/03 00:25:01;;;;;;;2.97;1.20;;;;;;;;;;5118897;28;20034;-76
2021/08/03 00:27:27;;;;;;;2.03;1.10;;;;;;;;;;5118057;28;20390;-78
2021/08/03 00:29:52;;;;;;;3.33;0.95;;;;;;;;;;5131740;28;20426;-78
2021/08/03 00:32:18;;;;;;;1.27;1.10;;;;;;;;;;5131920;28;20020;-77
2021/08/03 00:34:43;;;;;;;2.17;1.00;;;;;;;;;;5124538;28;20033;-77
2021/08/03 00:37:09;;;;;;;2.05;0.90;;;;;;;;;;5123925;28;20114;-77
2021/08/03 00:39:36;;;;;;;2.15;1.10;;;;;;;;;;5115011;28;20387;-77
2021/08/03 00:42:03;;;;;;;2.45;1.10;;;;;;;;;;5131513;28;20023;-76
2021/08/03 00:44:42;;;;;;;2.22;1.10;;;;;;;;;;5131442;28;20561;-76
2021/08/03 00:47:09;;;;;;;4.18;1.08;;;;;;;;;;5130825;28;20039;-77
2021/08/03 00:49:34;;;;;;;1.60;1.05;;;;;;;;;;5131512;28;20507;-77
2021/08/03 00:52:01;;;;;;;4.93;1.10;;;;;;;;;;5123925;28;20016;-77
2021/08/03 00:54:26;;;;;;;3.67;0.98;;;;;;;;;;5117375;28;20073;-77
2021/08/03 00:56:51;;;;;;;2.63;0.98;;;;;;;;;;5130760;27;20046;-77
2021/08/03 00:59:17;;;;;;;1.83;0.98;;;;;;;;;;5135432;27;20015;-77
2021/08/03 01:01:43;;;;;;;1.25;0.90;;;;;;;;;;5135101;27;20484;-77
2021/08/03 01:04:10;;;;;;;1.45;0.90;;;;;;;;;;5135466;27;20035;-77
2021/08/03 01:06:50;;;;;;;1.73;0.88;;;;;;;;;;5127124;27;20501;-77
2021/08/03 01:09:33;;;;;;;3.00;0.90;;;;;;;;;;5135613;27;20023;-76
2021/08/03 01:12:04;;;;;;;2.63;0.80;;;;;;;;;;5132504;27;20051;-76
2021/08/03 01:14:37;;;;;;;2.25;0.90;;;;;;;;;;5134578;27;20027;-76
2021/08/03 01:17:13;;;;;;;1.38;1.10;;;;;;;;;;5134892;27;20361;-76
2021/08/03 01:20:14;;;;;;;1.65;0.80;;;;;;;;;;5133988;27;20070;-77
2021/08/03 01:23:01;;;;;;;2.85;0.90;;;;;;;;;;5118343;27;20416;-76
2021/08/03 01:25:35;;;;;;;0.75;0.70;;;;;;;;;;5124375;27;20090;-76
2021/08/03 01:28:19;;;;;;;4.20;1.88;;;;;;;;;;5135168;27;20109;-77
2021/08/03 01:30:50;;;;;;;1.13;0.60;;;;;;;;;;5135067;27;20016;-77
2021/08/03 01:33:20;;;;;;;2.85;0.70;;;;;;;;;;5135660;27;20053;-77
2021/08/03 01:35:48;;;;;;;1.88;0.82;;;;;;;;;;5134878;27;20048;-77
2021/08/03 01:38:17;;;;;;;1.58;0.60;;;;;;;;;;5133869;27;20073;-76
2021/08/03 01:40:45;;;;;;;1.73;0.55;;;;;;;;;;5133562;27;20019;-76
2021/08/03 01:43:10;;;;;;;1.10;0.60;;;;;;;;;;5136126;27;20665;-77
2021/08/03 01:45:37;;;;;;;4.57;0.70;;;;;;;;;;5127721;27;20343;-76
2021/08/03 01:48:04;;;;;;;3.63;0.90;;;;;;;;;;5134546;27;20042;-77
2021/08/03 01:50:30;;;;;;;1.80;0.50;;;;;;;;;;5134826;27;20027;-77
2021/08/03 01:52:57;;;;;;;0.70;0.40;;;;;;;;;;5121977;27;20054;-76
2021/08/03 01:55:25;;;;;;;1.25;0.40;;;;;;;;;;5133911;27;20501;-77
2021/08/03 01:57:50;;;;;;;0.43;0.35;;;;;;;;;;5133194;27;20118;-76
2021/08/03 02:00:16;;;;;;;0.82;0.30;;;;;;;;;;5134684;27;20039;-77
2021/08/03 02:02:43;;;;;;;1.30;0.43;;;;;;;;;;5134743;27;20029;-76
2021/08/03 02:05:09;;;;;;;1.30;0.40;;;;;;;;;;5134986;27;20027;-76
2021/08/03 02:07:35;;;;;;;1.67;0.40;;;;;;;;;;5129038;27;20079;-78
2021/08/03 02:10:03;;;;;;;2.95;0.50;;;;;;;;;;5131834;27;20027;-76
2021/08/03 02:12:31;;;;;;;2.78;0.60;;;;;;;;;;5114195;27;20027;-77
2021/08/03 02:14:59;;;;;;;0.93;0.40;;;;;;;;;;5114751;28;20053;-77
2021/08/03 02:17:26;;;;;;;1.60;0.40;;;;;;;;;;5132044;27;20023;-76
2021/08/03 02:19:52;;;;;;;0.95;0.50;;;;;;;;;;5134505;27;20038;-76
2021/08/03 02:22:18;;;;;;;0.82;0.45;;;;;;;;;;5132264;27;20031;-76
2021/08/03 02:24:44;;;;;;;1.20;0.45;;;;;;;;;;5122001;27;20459;-76
2021/08/03 02:27:10;;;;;;;0.85;0.45;;;;;;;;;;5130733;27;20386;-76
2021/08/03 02:29:43;;;;;;;0.40;0.35;;;;;;;;;;5133342;27;20015;-76
2021/08/03 02:32:11;;;;;;;2.95;0.50;;;;;;;;;;5134235;27;20032;-76
2021/08/03 02:34:50;;;;;;;2.42;0.40;;;;;;;;;;5134838;27;20035;-77
2021/08/03 02:37:20;;;;;;;4.00;0.47;;;;;;;;;;5125550;27;20023;-78
2021/08/03 02:39:49;;;;;;;0.40;0.40;;;;;;;;;;5134157;27;20027;-78
2021/08/03 02:42:15;;;;;;;0.38;0.38;;;;;;;;;;5135384;27;20026;-78
2021/08/03 02:44:42;;;;;;;1.63;0.40;;;;;;;;;;5134738;27;20031;-78
2021/08/03 02:47:26;;;;;;;1.65;0.40;;;;;;;;;;5134178;27;20403;-77
2021/08/03 02:49:53;;;;;;;2.17;0.63;;;;;;;;;;5115937;27;20109;-76
2021/08/03 02:52:20;;;;;;;2.25;0.40;;;;;;;;;;5129752;27;20031;-77
2021/08/03 02:54:58;;;;;;;1.27;0.40;;;;;;;;;;5129534;27;20020;-77
2021/08/03 02:57:23;;;;;;;0.57;0.50;;;;;;;;;;5132640;27;20053;-77
2021/08/03 02:59:54;;;;;;;2.58;0.60;;;;;;;;;;5132831;27;20035;-77
2021/08/03 03:02:20;;;;;;;2.78;0.43;;;;;;;;;;5133158;27;20109;-76
2021/08/03 03:05:24;;;;;;;1.67;0.40;;;;;;;;;;5134258;27;20027;-77
2021/08/03 03:07:52;;;;;;;0.40;0.30;;;;;;;;;;5133414;27;20046;-78
2021/08/03 03:10:25;;;;;;;0.80;0.32;;;;;;;;;;5125609;27;20051;-76
2021/08/03 03:12:55;;;;;;;0.95;0.30;;;;;;;;;;5122509;27;20454;-77
2021/08/03 03:15:22;;;;;;;2.30;0.30;;;;;;;;;;5134160;27;20020;-77
2021/08/03 03:17:47;;;;;;;0.30;0.30;;;;;;;;;;5133848;27;20031;-77
2021/08/03 03:20:15;;;;;;;0.90;0.40;;;;;;;;;;5133387;27;20022;-77
2021/08/03 03:22:43;;;;;;;1.45;0.40;;;;;;;;;;5133359;27;20432;-77
2021/08/03 03:25:12;;;;;;;0.45;0.20;;;;;;;;;;5124403;27;20061;-78
2021/08/03 03:27:38;;;;;;;0.43;0.30;;;;;;;;;;5133179;27;20027;-75
2021/08/03 03:30:05;;;;;;;0.50;0.30;;;;;;;;;;5121571;27;20092;-76
2021/08/03 03:32:32;;;;;;;0.63;0.25;;;;;;;;;;5132726;27;20101;-76
2021/08/03 03:34:59;;;;;;;0.25;0.25;;;;;;;;;;5133228;27;20023;-77
2021/08/03 03:37:28;;;;;;;4.20;0.40;;;;;;;;;;5130809;27;20070;-76
2021/08/03 03:39:57;;;;;;;0.75;0.40;;;;;;;;;;5114219;27;20172;-78
2021/08/03 03:42:28;;;;;;;1.13;0.17;;;;;;;;;;5113213;28;20076;-76
2021/08/03 03:44:54;;;;;;;1.10;0.22;;;;;;;;;;5128969;27;20023;-77
2021/08/03 03:47:26;;;;;;;1.35;0.30;;;;;;;;;;5132074;27;20494;-77
2021/08/03 03:50:02;;;;;;;1.38;0.38;;;;;;;;;;5131275;27;20026;-77
2021/08/03 03:52:31;;;;;;;0.68;0.30;;;;;;;;;;5115806;27;20486;-77
2021/08/03 03:54:58;;;;;;;0.50;0.20;;;;;;;;;;5113738;27;20414;-77
2021/08/03 03:57:24;;;;;;;0.25;0.20;;;;;;;;;;5131927;27;20482;-76
2021/08/03 03:59:51;;;;;;;0.73;0.28;;;;;;;;;;5130684;27;20431;-77
2021/08/03 04:02:20;;;;;;;0.32;0.20;;;;;;;;;;5131680;27;20034;-76
2021/08/03 04:04:46;;;;;;;0.40;0.28;;;;;;;;;;5131600;27;20019;-76
2021/08/03 04:07:12;;;;;;;0.43;0.20;;;;;;;;;;5131588;27;20486;-76
2021/08/03 04:09:38;;;;;;;2.15;0.40;;;;;;;;;;5126506;27;20038;-77
2021/08/03 04:12:04;;;;;;;0.20;0.20;;;;;;;;;;5130723;27;20079;-77
2021/08/03 04:14:30;;;;;;;0.47;0.28;;;;;;;;;;5132365;27;20035;-76
2021/08/03 04:16:57;;;;;;;2.17;0.30;;;;;;;;;;5132709;27;20027;-77
2021/08/03 04:19:22;;;;;;;1.35;0.30;;;;;;;;;;5132635;27;20019;-77
2021/08/03 04:21:48;;;;;;;2.28;0.30;;;;;;;;;;5132419;27;20468;-77
2021/08/03 04:24:15;;;;;;;0.25;0.25;;;;;;;;;;5127471;27;20027;-77
2021/08/03 04:26:41;;;;;;;0.63;0.38;;;;;;;;;;5116612;28;20406;-77
2021/08/03 04:29:06;;;;;;;0.63;0.30;;;;;;;;;;5120404;28;20019;-77
2021/08/03 04:31:32;;;;;;;0.40;0.30;;;;;;;;;;5133755;27;20079;-77
2021/08/03 04:33:57;;;;;;;0.50;0.30;;;;;;;;;;5137153;27;20459;-76
2021/08/03 04:36:23;;;;;;;0.63;0.40;;;;;;;;;;5129971;27;20031;-76
2021/08/03 04:38:48;;;;;;;2.75;0.50;;;;;;;;;;5133972;27;20383;-75
2021/08/03 04:41:13;;;;;;;0.63;0.40;;;;;;;;;;5135782;27;20016;-76
2021/08/03 04:43:42;;;;;;;0.88;0.40;;;;;;;;;;5135442;27;20155;-76
2021/08/03 04:46:11;;;;;;;1.08;0.40;;;;;;;;;;5135268;27;20054;-76
2021/08/03 04:48:36;;;;;;;0.80;0.40;;;;;;;;;;5135641;27;20023;-77
2021/08/03 04:51:02;;;;;;;1.17;0.30;;;;;;;;;;5136017;27;20036;-75
2021/08/03 04:53:27;;;;;;;1.20;0.40;;;;;;;;;;5133448;27;20127;-75
2021/08/03 04:55:53;;;;;;;0.57;0.30;;;;;;;;;;5135246;27;20129;-76
2021/08/03 04:58:18;;;;;;;1.52;0.40;;;;;;;;;;5135341;27;20023;-76
2021/08/03 05:00:44;;;;;;;0.98;0.47;;;;;;;;;;5135852;27;20049;-77
2021/08/03 05:03:10;;;;;;;0.50;0.50;;;;;;;;;;5135839;27;20022;-77
2021/08/03 05:05:36;;;;;;;0.82;0.40;;;;;;;;;;5133168;27;20023;-77
2021/08/03 05:08:01;;;;;;;0.40;0.40;;;;;;;;;;5136070;27;20057;-77
2021/08/03 05:10:29;;;;;;;1.52;0.82;;;;;;;;;;5131332;27;20110;-77
2021/08/03 05:12:55;;;;;;;1.27;0.50;;;;;;;;;;5134309;27;20042;-77
2021/08/03 05:15:21;;;;;;;2.75;0.52;;;;;;;;;;5135626;27;20497;-76
2021/08/03 05:17:47;;;;;;;1.10;0.50;;;;;;;;;;5135848;27;20023;-75
2021/08/03 05:20:13;;;;;;;1.95;0.50;;;;;;;;;;5134576;27;20587;-76
2021/08/03 05:22:39;;;;;;;1.75;0.50;;;;;;;;;;5133464;27;20027;-77
2021/08/03 05:25:05;;;;;;;0.85;0.40;;;;;;;;;;5124690;27;20502;-76
2021/08/03 05:27:31;;;;;;;2.70;0.60;;;;;;;;;;5134303;27;20454;-77
2021/08/03 05:29:56;;;;;;;1.25;0.57;;;;;;;;;;5133949;27;20107;-75
2021/08/03 05:32:22;;;;;;;0.60;0.40;;;;;;;;;;5114730;28;20027;-76
2021/08/03 05:34:47;;;;;;;1.35;0.50;;;;;;;;;;5132459;27;20023;-77
2021/08/03 05:37:13;;;;;;;0.38;0.35;;;;;;;;;;5134616;27;20128;-76
2021/08/03 05:39:39;;;;;;;1.38;0.50;;;;;;;;;;5131560;27;20478;-76
2021/08/03 05:42:04;;;;;;;2.13;0.47;;;;;;;;;;5133848;27;20375;-75
2021/08/03 05:44:30;;;;;;;3.00;0.57;;;;;;;;;;5121297;27;20031;-78
2021/08/03 05:46:57;;;;;;;0.70;0.50;;;;;;;;;;5130735;27;20122;-77
2021/08/03 05:49:23;;;;;;;0.50;0.40;;;;;;;;;;5134440;27;20038;-77
2021/08/03 05:51:48;;;;;;;0.45;0.40;;;;;;;;;;5133522;27;20041;-77
2021/08/03 05:54:14;;;;;;;0.70;0.30;;;;;;;;;;5129762;27;20019;-76
2021/08/03 05:56:41;;;;;;;2.03;0.40;;;;;;;;;;5132015;27;20042;-76
2021/08/03 05:59:07;;;;;;;2.85;0.50;;;;;;;;;;5114452;28;20027;-76
2021/08/03 06:01:33;;;;;;;2.45;0.32;;;;;;;;;;5114741;27;20027;-77
2021/08/03 06:03:58;;;;;;;1.08;0.40;;;;;;;;;;5115519;27;20026;-76
2021/08/03 06:06:26;;;;;;;0.82;0.30;;;;;;;;;;5134047;27;20023;-76
2021/08/03 06:08:52;;;;;;;1.05;0.40;;;;;;;;;;5128331;27;20024;-77
2021/08/03 06:11:23;;;;;;;0.32;0.32;;;;;;;;;;5112631;28;20023;-77
2021/08/03 06:13:53;;;;;;;1.27;0.57;;;;;;;;;;5129235;27;20114;-77
2021/08/03 06:16:24;;;;;;;0.43;0.43;;;;;;;;;;5135115;27;20019;-77
2021/08/03 06:18:50;;;;;;;2.92;0.57;;;;;;;;;;5134686;27;20417;-77
2021/08/03 06:21:18;;;;;;;1.88;0.50;;;;;;;;;;5133057;27;20019;-77
2021/08/03 06:23:45;;;;;;;1.45;0.50;;;;;;;;;;5128171;27;20027;-76
2021/08/03 06:26:11;;;;;;;0.40;0.40;;;;;;;;;;5123149;27;20485;-76
2021/08/03 06:28:37;;;;;;;1.20;0.60;;;;;;;;;;5134055;27;20098;-77
2021/08/03 06:31:04;;;;;;;0.57;0.57;;;;;;;;;;5114756;27;20038;-76
2021/08/03 06:33:30;;;;;;;0.93;0.60;;;;;;;;;;5133622;27;20114;-76
2021/08/03 06:35:55;;;;;;;1.05;0.50;;;;;;;;;;5132572;27;20152;-76
2021/08/03 06:38:21;;;;;;;1.23;0.52;;;;;;;;;;5131919;27;20019;-75
2021/08/03 06:41:22;;;;;;;1.65;0.80;;;;;;;;;;5121816;27;20034;-77
2021/08/03 06:43:54;;;;;;;1.10;0.70;;;;;;;;;;5101095;27;20031;-78
2021/08/03 06:46:20;;;;;;;3.90;0.80;;;;;;;;;;5132823;27;20499;-79
2021/08/03 06:48:50;;;;;;;1.35;0.73;;;;;;;;;;5133322;27;20019;-76
2021/08/03 06:51:17;;;;;;;6.32;0.93;;;;;;;;;;5132944;27;20041;-76
2021/08/03 06:53:45;;;;;;;1.17;0.60;;;;;;;;;;5128174;27;20398;-76
2021/08/03 06:56:16;;;;;;;3.03;0.75;;;;;;;;;;5123552;27;20085;-76
2021/08/03 06:58:57;;;;;;;2.45;0.68;;;;;;;;;;5119335;27;20027;-76
2021/08/03 07:01:43;;;;;;;0.85;0.65;;;;;;;;;;5118709;27;20409;-76
2021/08/03 07:04:11;;;;;;;1.38;0.70;;;;;;;;;;5131937;27;20035;-76
2021/08/03 07:06:42;;;;;;;2.15;0.57;;;;;;;;;;5126786;27;20059;-76
2021/08/03 07:09:09;;;;;;;1.27;0.60;;;;;;;;;;5130600;27;20033;-76
2021/08/03 07:11:35;;;;;;;2.30;0.90;;;;;;;;;;5119649;27;20027;-76
2021/08/03 07:14:00;;;;;;;2.72;0.70;;;;;;;;;;5129795;27;20084;-76
2021/08/03 07:16:28;;;;;;;1.08;0.55;;;;;;;;;;5132696;27;20394;-76
2021/08/03 07:18:55;;;;;;;1.65;0.60;;;;;;;;;;5132672;27;20032;-76
2021/08/03 07:21:24;;;;;;;2.13;0.60;;;;;;;;;;5131362;27;20102;-76
2021/08/03 07:23:55;;;;;;;2.63;0.80;;;;;;;;;;5123526;27;20501;-76
2021/08/03 07:26:22;;;;;;;1.10;0.70;;;;;;;;;;5131275;27;20110;-76
2021/08/03 07:28:48;;;;;;;1.08;0.75;;;;;;;;;;5132493;27;20019;-78
2021/08/03 07:31:13;;;;;;;1.05;0.70;;;;;;;;;;5132206;27;20039;-76
2021/08/03 07:33:39;;;;;;;1.52;0.80;;;;;;;;;;5113841;27;20031;-76
2021/08/03 07:36:04;;;;;;;0.98;0.70;;;;;;;;;;5129059;27;20482;-76
2021/08/03 07:38:30;;;;;;;1.10;0.75;;;;;;;;;;5127306;27;20042;-76
2021/08/03 07:40:56;;;;;;;2.17;1.08;;;;;;;;;;5131086;27;20494;-76
2021/08/03 07:43:21;;;;;;;0.80;0.70;;;;;;;;;;5126713;27;20045;-76
2021/08/03 07:45:47;;;;;;;2.15;0.70;;;;;;;;;;5121810;27;20371;-76
2021/08/03 07:48:13;;;;;;;0.90;0.70;;;;;;;;;;5127761;27;20542;-76
2021/08/03 07:50:39;;;;;;;1.00;0.60;;;;;;;;;;5126661;27;20019;-75
2021/08/03 07:53:07;;;;;;;1.95;0.73;;;;;;;;;;5116144;27;20130;-76
2021/08/03 07:55:32;;;;;;;0.82;0.70;;;;;;;;;;5126015;27;20023;-76
2021/08/03 07:57:58;;;;;;;0.80;0.70;;;;;;;;;;5132245;27;20027;-76
2021/08/03 08:00:23;;;;;;;1.13;0.63;;;;;;;;;;5132009;27;20021;-75
2021/08/03 08:02:49;;;;;;;2.42;0.75;;;;;;;;;;5131591;27;20026;-76
2021/08/03 08:05:15;;;;;;;1.60;0.90;;;;;;;;;;5131499;27;20027;-76
2021/08/03 08:07:41;;;;;;;1.42;0.70;;;;;;;;;;5126098;27;20030;-75
2021/08/03 08:10:07;;;;;;;0.88;0.70;;;;;;;;;;5120848;27;20360;-75
2021/08/03 08:12:32;;;;;;;1.77;0.73;;;;;;;;;;5130754;27;20023;-75
2021/08/03 08:14:58;;;;;;;1.27;0.80;;;;;;;;;;5116701;27;20038;-75
2021/08/03 08:17:23;;;;;;;2.08;0.70;;;;;;;;;;5121091;27;20024;-75
2021/08/03 08:19:49;;;;;;;2.08;0.80;;;;;;;;;;5124570;27;20529;-75
2021/08/03 08:22:14;;;;;;;0.70;0.70;;;;;;;;;;5120039;28;20110;-75
2021/08/03 08:24:40;;;;;;;0.90;0.70;;;;;;;;;;5125737;27;20038;-76
2021/08/03 08:27:12;;;;;;;1.42;0.60;;;;;;;;;;5122910;27;20042;-76
2021/08/03 08:29:39;;;;;;;1.52;0.75;;;;;;;;;;5120483;28;20081;-76
2021/08/03 08:32:06;;;;;;;0.98;0.50;;;;;;;;;;5119238;28;20475;-75
2021/08/03 08:34:31;;;;;;;0.80;0.68;;;;;;;;;;5117862;28;20468;-75
2021/08/03 08:36:57;;;;;;;2.30;0.52;;;;;;;;;;5130670;28;20031;-75
2021/08/03 08:39:22;;;;;;;1.23;0.57;;;;;;;;;;5126020;28;20027;-76
2021/08/03 08:41:48;;;;;;;1.27;0.60;;;;;;;;;;5120322;28;20038;-75
2021/08/03 08:44:14;;;;;;;0.50;0.50;;;;;;;;;;5124469;28;20035;-77
2021/08/03 08:46:40;;;;;;;0.70;0.60;;;;;;;;;;5112084;28;20054;-75
2021/08/03 08:49:07;;;;;;;0.82;0.40;;;;;;;;;;5132460;28;20046;-74
2021/08/03 08:51:32;;;;;;;1.42;0.40;;;;;;;;;;5132479;28;20497;-75
2021/08/03 08:54:00;;;;;;;2.85;0.60;;;;;;;;;;5117717;28;20023;-74
2021/08/03 08:56:29;;;;;;;1.85;0.70;;;;;;;;;;5130000;28;20038;-74
2021/08/03 08:58:54;;;;;;;0.55;0.55;;;;;;;;;;5122507;28;20138;-75
2021/08/03 09:01:20;;;;;;;0.93;0.50;;;;;;;;;;5119456;28;20023;-75
2021/08/03 09:03:46;;;;;;;1.02;0.50;;;;;;;;;;5130175;28;20427;-75
2021/08/03 09:06:11;;;;;;;1.70;0.50;;;;;;;;;;5111937;28;20066;-75
2021/08/03 09:08:39;;;;;;;0.82;0.38;;;;;;;;;;5120226;28;20077;-75
2021/08/03 09:11:13;;;;;;;0.80;0.45;;;;;;;;;;5130165;28;20035;-75
2021/08/03 09:14:00;;;;;;;0.60;0.50;;;;;;;;;;5129884;28;20102;-75
2021/08/03 09:16:41;;;;;;;0.77;0.50;;;;;;;;;;5130279;28;20015;-75
2021/08/03 09:19:07;;;;;;;1.75;0.47;;;;;;;;;;5133512;27;20019;-75
2021/08/03 09:21:32;;;;;;;0.82;0.60;;;;;;;;;;5133705;27;20322;-75
2021/08/03 09:24:01;;;;;;;2.05;0.68;;;;;;;;;;5134812;27;20027;-75
2021/08/03 09:26:43;;;;;;;0.43;0.40;;;;;;;;;;5134951;27;20098;-76
2021/08/03 09:29:11;;;;;;;3.42;0.50;;;;;;;;;;5134721;27;20037;-76
2021/08/03 09:31:38;;;;;;;0.93;0.50;;;;;;;;;;5134843;27;20019;-76
2021/08/03 09:34:15;;;;;;;1.67;0.60;;;;;;;;;;5134543;27;20031;-75
2021/08/03 09:36:55;;;;;;;3.65;0.52;;;;;;;;;;5135138;27;20432;-76
2021/08/03 09:39:39;;;;;;;2.47;0.50;;;;;;;;;;5135079;27;20023;-75
2021/08/03 09:42:13;;;;;;;1.50;0.52;;;;;;;;;;5132683;27;20020;-76
2021/08/03 09:44:52;;;;;;;1.85;0.52;;;;;;;;;;5134690;27;20026;-76
2021/08/03 09:47:19;;;;;;;2.20;0.50;;;;;;;;;;5134504;27;20087;-75
2021/08/03 09:49:48;;;;;;;1.85;0.70;;;;;;;;;;5134566;27;20026;-77
2021/08/03 09:52:17;;;;;;;0.85;0.50;;;;;;;;;;5134743;27;20030;-76
2021/08/03 09:54:43;;;;;;;0.63;0.40;;;;;;;;;;5134423;27;20030;-76
2021/08/03 09:57:25;;;;;;;1.08;0.50;;;;;;;;;;5134187;27;20019;-76
2021/08/03 09:59:55;;;;;;;0.65;0.50;;;;;;;;;;5134536;27;20053;-78
2021/08/03 10:02:25;;;;;;;0.73;0.60;;;;;;;;;;5134219;27;20023;-78
2021/08/03 10:04:52;;;;;;;0.50;0.50;;;;;;;;;;5134203;27;20019;-77
2021/08/03 10:07:19;;;;;;;0.52;0.40;;;;;;;;;;5133822;27;20066;-75
2021/08/03 10:09:45;;;;;;;0.90;0.50;;;;;;;;;;5133974;27;20072;-76
2021/08/03 10:12:12;;;;;;;2.47;0.50;;;;;;;;;;5133403;27;20023;-76
2021/08/03 10:14:38;;;;;;;0.40;0.40;;;;;;;;;;5134075;27;20023;-76
2021/08/03 10:17:04;;;;;;;1.27;0.68;;;;;;;;;;5133751;27;20027;-74
2021/08/03 10:19:33;;;;;;;0.43;0.40;;;;;;;;;;5134278;27;20539;-76
2021/08/03 10:22:23;;;;;;;1.38;0.60;;;;;;;;;;5133759;27;20015;-75
2021/08/03 10:25:02;;;;;;;1.90;0.55;;;;;;;;;;5133739;27;20023;-75
2021/08/03 10:27:48;;;;;;;1.23;0.50;;;;;;;;;;5133922;27;20031;-76
2021/08/03 10:30:29;;;;;;;0.40;0.32;;;;;;;;;;5131480;27;20130;-77
2021/08/03 10:32:59;;;;;;;1.15;0.50;;;;;;;;;;5133364;27;20023;-74
2021/08/03 10:35:42;;;;;;;0.40;0.40;;;;;;;;;;5133991;27;20019;-74
2021/08/03 10:38:09;;;;;;;0.40;0.40;;;;;;;;;;5133729;27;20069;-76
2021/08/03 10:40:43;;;;;;;0.50;0.47;;;;;;;;;;5134104;27;20018;-74
2021/08/03 10:43:25;;;;;;;0.30;0.30;;;;;;;;;;5133334;27;20030;-77
2021/08/03 10:46:08;;;;;;;0.63;0.40;;;;;;;;;;5132736;27;20371;-73
2021/08/03 10:48:37;;;;;;;0.38;0.38;;;;;;;;;;5132134;27;20087;-74
2021/08/03 10:54:05;;;;;;;1.25;0.47;;;;;;;;;;5133857;27;20273;-74
2021/08/03 10:56:52;;;;;;;2.15;0.32;;;;;;;;;;5132024;27;20062;-75
2021/08/03 10:59:39;;;;;;;3.40;0.52;;;;;;;;;;5133421;27;20019;-74
2021/08/03 11:02:23;;;;;;;0.43;0.30;;;;;;;;;;5133229;27;20031;-75
2021/08/03 11:04:51;;;;;;;;;;;;;;;;;;5115427;27;20027;-73
2021/08/03 11:07:32;;;;;;;1.02;0.60;;;;;;;;;;5132839;27;19907;-74
2021/08/03 11:09:59;;;;;;;0.50;0.50;;;;;;;;;;5132438;27;20031;-75
2021/08/03 11:13:04;;;;;;;1.10;0.43;;;;;;;;;;5123495;27;20030;-75
2021/08/03 11:15:36;;;;;;;0.50;0.50;;;;;;;;;;5103691;28;20054;-74
2021/08/03 11:18:14;;;;;;;0.82;0.47;;;;;;;;;;5113372;28;20021;-74
2021/08/03 11:20:42;;;;;;;1.30;0.30;;;;;;;;;;5113288;28;20018;-75
2021/08/03 11:23:17;;;;;;;0.95;0.47;;;;;;;;;;5113157;28;20020;-74
2021/08/03 11:25:45;;;;;;;0.57;0.40;;;;;;;;;;5113243;28;20024;-75
2021/08/03 11:28:18;;;;;;;2.83;0.43;;;;;;;;;;5113034;28;20034;-75
2021/08/03 11:30:45;;;;;;;0.50;0.40;;;;;;;;;;5126595;27;20026;-73
2021/08/03 11:33:13;;;;;;;0.43;0.40;;;;;;;;;;5133293;27;20031;-76
2021/08/03 11:35:39;;;;;;;1.02;0.40;;;;;;;;;;5120562;27;20027;-76
2021/08/03 11:38:13;;;;;;;0.40;0.40;;;;;;;;;;5133085;27;20038;-74
2021/08/03 11:40:39;;;;;;;0.85;0.50;;;;;;;;;;5123326;27;20523;-74
2021/08/03 11:43:06;;;;;;;1.17;0.60;;;;;;;;;;5129156;27;20102;-78
2021/08/03 11:45:34;;;;;;;0.40;0.40;;;;;;;;;;5120055;27;20069;-76
2021/08/03 11:48:03;;;;;;;1.05;0.40;;;;;;;;;;5123843;27;20088;-77
2021/08/03 11:50:29;;;;;;;0.32;0.28;;;;;;;;;;5122862;27;20065;-78
2021/08/03 11:53:03;;;;;;;0.85;0.40;;;;;;;;;;5114524;27;20439;-77
2021/08/03 11:55:28;;;;;;;0.40;0.40;;;;;;;;;;5130931;27;20027;-73
2021/08/03 11:57:54;;;;;;;0.52;0.50;;;;;;;;;;5132162;27;20026;-72
2021/08/03 12:00:23;;;;;;;1.20;0.50;;;;;;;;;;5131877;27;20516;-72
2021/08/03 12:02:51;;;;;;;0.40;0.40;;;;;;;;;;5131902;27;20071;-73
2021/08/03 12:05:24;;;;;;;0.40;0.40;;;;;;;;;;5131780;27;20106;-72
2021/08/03 12:07:52;;;;;;;0.50;0.50;;;;;;;;;;5132013;27;20023;-72
2021/08/03 12:10:21;;;;;;;1.63;0.50;;;;;;;;;;5131662;27;20267;-72
2021/08/03 12:12:47;;;;;;;0.38;0.38;;;;;;;;;;5131779;27;20027;-73
2021/08/03 12:15:15;;;;;;;0.43;0.43;;;;;;;;;;5131732;27;20023;-73
2021/08/03 12:17:41;;;;;;;0.98;0.45;;;;;;;;;;5131901;27;20659;-74
2021/08/03 12:20:30;;;;;;;3.05;0.60;;;;;;;;;;5131977;27;20140;-73
2021/08/03 12:23:09;;;;;;;0.50;0.50;;;;;;;;;;5131826;27;20019;-73
2021/08/03 12:26:03;;;;;;;1.95;0.40;;;;;;;;;;5131759;27;20019;-73
2021/08/03 12:28:35;;;;;;;0.38;0.38;;;;;;;;;;5129893;27;20043;-72
2021/08/03 12:31:20;;;;;;;0.52;0.30;;;;;;;;;;5131512;27;20023;-72
2021/08/03 12:33:47;;;;;;;0.52;0.50;;;;;;;;;;5131649;28;20102;-73
2021/08/03 12:36:15;;;;;;;0.50;0.50;;;;;;;;;;5131385;28;20023;-74
2021/08/03 12:39:01;;;;;;;0.50;0.50;;;;;;;;;;5131672;28;20047;-74
2021/08/03 12:41:30;;;;;;;1.65;0.55;;;;;;;;;;5120450;28;20032;-73
2021/08/03 12:43:59;;;;;;;0.70;0.50;;;;;;;;;;5131626;28;20098;-74
2021/08/03 12:46:38;;;;;;;0.60;0.40;;;;;;;;;;5124442;28;20011;-75
2021/08/03 12:49:07;;;;;;;1.35;0.57;;;;;;;;;;5126177;28;20027;-75
2021/08/03 12:51:34;;;;;;;0.73;0.60;;;;;;;;;;5126557;27;20159;-75
2021/08/03 12:54:16;;;;;;;0.90;0.60;;;;;;;;;;5132266;27;20025;-74
2021/08/03 12:56:56;;;;;;;0.40;0.40;;;;;;;;;;5135458;27;20110;-75
2021/08/03 12:59:54;;;;;;;1.33;0.40;;;;;;;;;;5131613;27;20254;-75
2021/08/03 13:02:19;;;;;;;1.20;0.52;;;;;;;;;;5081718;27;20394;-73
2021/08/03 13:04:46;;;;;;;0.40;0.40;;;;;;;;;;5114949;28;20149;-75
2021/08/03 13:07:13;;;;;;;1.42;0.50;;;;;;;;;;5129005;27;20470;-75
2021/08/03 13:09:39;;;;;;;1.02;0.55;;;;;;;;;;5135426;27;20035;-74
2021/08/03 13:12:07;;;;;;;0.40;0.40;;;;;;;;;;5124907;27;20050;-75
2021/08/03 13:14:32;;;;;;;0.90;0.50;;;;;;;;;;5131949;27;20046;-76
2021/08/03 13:16:58;;;;;;;1.38;0.50;;;;;;;;;;5132682;27;20378;-75
2021/08/03 13:19:29;;;;;;;1.05;0.47;;;;;;;;;;5122425;27;20642;-76
2021/08/03 13:21:58;;;;;;;1.55;0.50;;;;;;;;;;5121083;27;20015;-75
2021/08/03 13:24:25;;;;;;;0.50;0.50;;;;;;;;;;5130584;27;20058;-76
2021/08/03 13:26:50;;;;;;;0.40;0.40;;;;;;;;;;5133611;27;20053;-73
2021/08/03 13:29:16;;;;;;;1.55;0.40;;;;;;;;;;5134707;27;20474;-75
2021/08/03 13:31:43;;;;;;;0.60;0.40;;;;;;;;;;5134911;27;20338;-74
2021/08/03 13:34:10;;;;;;;0.57;0.50;;;;;;;;;;5134474;27;20019;-74
2021/08/03 13:36:36;;;;;;;0.50;0.50;;;;;;;;;;5134654;27;20026;-73
2021/08/03 13:39:01;;;;;;;0.68;0.60;;;;;;;;;;5134699;27;20026;-76
2021/08/03 13:41:27;;;;;;;0.50;0.50;;;;;;;;;;5132934;27;20031;-76
2021/08/03 13:43:53;;;;;;;1.05;0.47;;;;;;;;;;5123663;27;20311;-75
2021/08/03 13:46:18;;;;;;;0.40;0.40;;;;;;;;;;5127981;27;20036;-75
2021/08/03 13:48:44;;;;;;;0.60;0.52;;;;;;;;;;5116292;27;20027;-75
2021/08/03 13:51:12;;;;;;;0.43;0.43;;;;;;;;;;5134435;27;20031;-76
2021/08/03 13:53:37;;;;;;;0.55;0.40;;;;;;;;;;5136989;27;20387;-80
2021/08/03 13:56:03;;;;;;;1.08;0.60;;;;;;;;;;5140819;27;20163;-78
2021/08/03 13:58:29;;;;;;;0.45;0.40;;;;;;;;;;5142274;27;20023;-81
2021/08/03 14:00:55;;;;;;;0.98;0.52;;;;;;;;;;5131150;27;20123;-76
2021/08/03 14:03:20;;;;;;;1.00;0.50;;;;;;;;;;5124371;27;20043;-79
2021/08/03 14:05:47;;;;;;;0.63;0.43;;;;;;;;;;5118344;28;20028;-81
2021/08/03 14:08:12;;;;;;;1.23;0.38;;;;;;;;;;5133405;27;20023;-80
2021/08/03 14:10:39;;;;;;;0.45;0.43;;;;;;;;;;5138641;27;20060;-76
2021/08/03 14:13:04;;;;;;;1.02;0.50;;;;;;;;;;5137865;27;20023;-79
2021/08/03 14:15:30;;;;;;;0.73;0.73;;;;;;;;;;5122094;27;20390;-81
2021/08/03 14:17:55;;;;;;;0.43;0.43;;;;;;;;;;5116655;28;20023;-78
2021/08/03 14:20:21;;;;;;;0.50;0.40;;;;;;;;;;5122548;28;20020;-80
2021/08/03 14:22:47;;;;;;;0.82;0.68;;;;;;;;;;5120920;28;20026;-77
2021/08/03 14:25:13;;;;;;;0.40;0.40;;;;;;;;;;5120142;27;20031;-80
2021/08/03 14:27:38;;;;;;;1.75;0.50;;;;;;;;;;5142297;27;20398;-79
2021/08/03 14:30:05;;;;;;;0.50;0.40;;;;;;;;;;5134380;27;20038;-79
2021/08/03 14:32:30;;;;;;;0.60;0.60;;;;;;;;;;5137120;27;20060;-80
2021/08/03 14:34:56;;;;;;;0.50;0.50;;;;;;;;;;5132353;27;20491;-79
2021/08/03 14:37:25;;;;;;;0.60;0.50;;;;;;;;;;5137221;27;20019;-80
2021/08/03 14:39:51;;;;;;;1.05;0.40;;;;;;;;;;5133381;27;20035;-79
2021/08/03 14:42:16;;;;;;;1.10;0.43;;;;;;;;;;5125189;27;20355;-80
2021/08/03 14:44:42;;;;;;;2.00;0.55;;;;;;;;;;5134189;27;20034;-78
2021/08/03 14:47:08;;;;;;;0.60;0.55;;;;;;;;;;5127006;27;20046;-77
2021/08/03 14:49:34;;;;;;;0.52;0.43;;;;;;;;;;5137160;27;20034;-77
2021/08/03 14:52:00;;;;;;;1.48;0.40;;;;;;;;;;5134267;27;20012;-80
2021/08/03 14:54:25;;;;;;;0.90;0.50;;;;;;;;;;5137306;27;20027;-80
2021/08/03 14:56:52;;;;;;;1.60;0.50;;;;;;;;;;5134602;27;20417;-78